Hlavní strana
METAR-TAF:

METAR-TAF

Letiště :

Jacksonville, Florida, Spojené státy americké

zeměpisná šířka: 30-14-03N, zeměpisná délka: 081-40-29W, výška: 6 m

Aktuální stav počasí

Zpráva byla vytvořena před 9 minutami, v 10:53 UTC
Západojihozápadní vítr 4 kt
Teplota 22°C
Vlhkost vzduchu 78%
Tlak 1021 hPa
Viditelnost: 16.1 km
Skoro jasno ve výšce 2000 ft

METAR: KNIP 241053Z 25004KT 10SM FEW020 22/18 A3015 RMK AO2 SLP206 T02220183

Čas: 07:02 (11:02 UTC)

Předpověď počasí

Předpověď platná od 24 v 07 UTC do 25 v 07 UTC
Jihojihovýchodní vítr 8 kt
Viditelnost 10 km a více
Skoro jasno ve výšce 2500 ft
Od 24 v 1500 UTC
Východojihovýchodní vítr 8 kt
Viditelnost 10 km a více
Polojasno ve výšce 3000 ft
Změna
od 25 v 02 UTC do 25 v 04 UTC
vítr z různých směrů 6 kt
Viditelnost 10 km a více
Jasno

TAF: KNIP 2407/2507 15008KT 9999 FEW025 QNH3012INS FM241500 12008KT 9999 SCT030 QNH3004INS BECMG 2502/2504 VRB06KT 9999 SKC QNH3008INS T23/2412Z T34/2420Z FN00178

Stav a předpovědi počasí z více než 4 000 letišť (zprávy METAR a TAF).

Červené a žluté tečky na mapě představují dostupné meteorologické stanice.

Když kurzor umístíte na tečku, zobrazí se název stanice.

Pak kliknutím zobrazíte stav a předpověď počasí.

Chcete-li změnit mapu, kliknutím na zelené tlačítko se znaménkem +mapu přiblížíte, kliknutím na zelené tlačítko se znaménkem – mapu oddálíte a kliknutím na zelené šipky přejdete na sousední mapy.


METAR-TAF: